Time;durP1;ratioP1;P1;durP2;ratioP2;P2;SDS_P1;SDS_P2;PMS_P1;PMS_P2;Temp;Humidity;BMP_temperature;BMP_pressure;BME280_temperature;BME280_humidity;BME280_pressure;Samples;Min_cycle;Max_cycle;Signal;HPM_P1;HPM_P2
2021/05/20 00:00:40;;;;;;;13.27;8.77;;;10.20;90.80;;;;;;5055915;28;20032;-73
2021/05/20 00:03:06;;;;;;;12.07;9.13;;;10.30;90.90;;;;;;5072364;28;20127;-73
2021/05/20 00:05:32;;;;;;;12.00;8.80;;;10.20;91.20;;;;;;5072724;28;20027;-73
2021/05/20 00:07:57;;;;;;;12.33;9.47;;;10.20;90.90;;;;;;5073982;28;20059;-78
2021/05/20 00:10:23;;;;;;;11.13;8.37;;;10.20;90.90;;;;;;5072662;28;20531;-78
2021/05/20 00:12:49;;;;;;;13.03;9.60;;;10.10;91.00;;;;;;5073158;28;20384;-78
2021/05/20 00:15:15;;;;;;;14.17;10.13;;;10.10;91.00;;;;;;5073561;28;20025;-78
2021/05/20 00:17:41;;;;;;;17.30;12.07;;;10.10;91.10;;;;;;5073588;28;20071;-78
2021/05/20 00:20:07;;;;;;;19.63;12.47;;;10.10;91.30;;;;;;5039019;28;20028;-78
2021/05/20 00:22:33;;;;;;;19.70;13.93;;;10.00;91.40;;;;;;5073485;28;20033;-78
2021/05/20 00:24:59;;;;;;;20.63;14.03;;;10.00;91.40;;;;;;5073469;28;20108;-78
2021/05/20 00:27:24;;;;;;;18.63;13.13;;;10.00;91.50;;;;;;5072376;28;20035;-78
2021/05/20 00:29:50;;;;;;;15.87;11.40;;;10.10;91.40;;;;;;5055589;28;20479;-73
2021/05/20 00:32:17;;;;;;;15.27;11.93;;;10.00;91.30;;;;;;5072290;28;20088;-73
2021/05/20 00:34:42;;;;;;;15.80;11.63;;;10.00;91.30;;;;;;5073505;28;20065;-73
2021/05/20 00:37:08;;;;;;;14.87;11.37;;;9.90;91.20;;;;;;5072346;28;20044;-73
2021/05/20 00:39:34;;;;;;;15.23;11.37;;;9.90;91.50;;;;;;5072146;28;20037;-73
2021/05/20 00:42:06;;;;;;;23.67;12.67;;;9.90;91.30;;;;;;5073263;28;20073;-74
2021/05/20 00:44:32;;;;;;;18.20;11.93;;;9.90;91.30;;;;;;5072054;28;20024;-78
2021/05/20 00:46:57;;;;;;;19.30;12.70;;;10.00;91.40;;;;;;5055821;28;20380;-78
2021/05/20 00:49:23;;;;;;;18.27;13.63;;;9.80;91.40;;;;;;5073219;28;20499;-78
2021/05/20 00:51:48;;;;;;;19.17;13.97;;;9.80;91.40;;;;;;5073143;28;20021;-78
2021/05/20 00:54:14;;;;;;;17.60;12.60;;;9.70;91.40;;;;;;5055238;28;20383;-78
2021/05/20 00:56:41;;;;;;;17.23;13.23;;;9.70;91.40;;;;;;5071828;28;20024;-79
2021/05/20 00:59:07;;;;;;;21.07;13.77;;;9.70;91.50;;;;;;5072014;28;20058;-79
2021/05/20 01:01:33;;;;;;;18.07;13.47;;;9.60;91.50;;;;;;5072001;28;20435;-79
2021/05/20 01:03:59;;;;;;;21.90;14.27;;;9.60;91.50;;;;;;5071631;28;20101;-79
2021/05/20 01:06:24;;;;;;;20.33;15.33;;;9.60;91.60;;;;;;5071802;28;20476;-79
2021/05/20 01:08:50;;;;;;;22.97;17.00;;;9.50;91.70;;;;;;5071674;28;20392;-79
2021/05/20 01:11:18;;;;;;;25.20;17.83;;;9.50;91.70;;;;;;5055638;28;20024;-79
2021/05/20 01:13:44;;;;;;;23.60;17.47;;;9.50;92.10;;;;;;5073008;28;20025;-79
2021/05/20 01:16:11;;;;;;;26.90;17.83;;;9.50;91.80;;;;;;5056031;28;20035;-79
2021/05/20 01:18:37;;;;;;;24.63;17.60;;;9.50;91.80;;;;;;5076551;28;20070;-79
2021/05/20 01:21:03;;;;;;;21.00;16.20;;;9.50;91.90;;;;;;5076603;28;20477;-78
2021/05/20 01:23:28;;;;;;;26.60;18.07;;;9.40;91.90;;;;;;5075406;28;20024;-78
2021/05/20 01:25:54;;;;;;;24.70;17.67;;;9.40;91.90;;;;;;5058643;28;20035;-78
2021/05/20 01:28:22;;;;;;;24.63;17.63;;;9.40;91.90;;;;;;5075099;28;20082;-79
2021/05/20 01:30:49;;;;;;;25.47;17.67;;;9.40;92.00;;;;;;5075307;28;20025;-79
2021/05/20 01:33:15;;;;;;;24.03;16.83;;;9.30;92.00;;;;;;5076336;28;20024;-78
2021/05/20 01:35:42;;;;;;;21.73;16.00;;;9.30;92.10;;;;;;5076234;28;20032;-79
2021/05/20 01:41:04;;;;;;;22.03;16.07;;;9.20;92.10;;;;;;5076150;28;20039;-78
2021/05/20 01:43:31;;;;;;;22.47;15.77;;;9.20;92.10;;;;;;5074989;28;20024;-78
2021/05/20 01:45:58;;;;;;;22.13;17.20;;;9.20;92.20;;;;;;5074888;28;20368;-79
2021/05/20 01:48:35;;;;;;;23.40;15.97;;;9.20;92.30;;;;;;5075035;28;20029;-79
2021/05/20 01:51:11;;;;;;;22.83;16.33;;;9.10;92.30;;;;;;5074816;28;20048;-78
2021/05/20 01:53:39;;;;;;;25.37;17.87;;;9.10;92.30;;;;;;5058439;28;20028;-78
2021/05/20 01:56:05;;;;;;;21.20;16.13;;;9.00;92.60;;;;;;5074675;28;20499;-78
2021/05/20 01:58:32;;;;;;;23.83;17.53;;;9.10;92.30;;;;;;5075900;28;20103;-78
2021/05/20 02:00:58;;;;;;;28.47;18.87;;;9.00;92.60;;;;;;5075732;28;20028;-78
2021/05/20 02:03:24;;;;;;;25.17;18.33;;;9.00;92.30;;;;;;5075209;28;20093;-78
2021/05/20 02:05:50;;;;;;;30.57;20.27;;;9.00;92.40;;;;;;5073168;28;20021;-79
2021/05/20 02:08:16;;;;;;;30.67;20.67;;;8.90;92.40;;;;;;5075748;28;20484;-78
2021/05/20 02:10:42;;;;;;;27.50;20.47;;;8.90;92.50;;;;;;5074844;28;20024;-78
2021/05/20 02:13:08;;;;;;;29.17;21.63;;;8.80;92.60;;;;;;5075923;28;20032;-78
2021/05/20 02:15:34;;;;;;;30.53;22.20;;;8.80;92.70;;;;;;5076124;28;20452;-78
2021/05/20 02:17:59;;;;;;;32.73;22.47;;;8.80;92.60;;;;;;5074506;28;20032;-78
2021/05/20 02:20:25;;;;;;;33.07;22.87;;;8.70;92.60;;;;;;5075535;28;20104;-78
2021/05/20 02:22:52;;;;;;;37.30;23.53;;;8.70;92.60;;;;;;5075622;28;20122;-78
2021/05/20 02:25:18;;;;;;;47.17;24.20;;;8.70;92.70;;;;;;5074546;28;20025;-78
2021/05/20 02:27:45;;;;;;;97.70;26.63;;;8.70;93.00;;;;;;5073139;28;20490;-78
2021/05/20 02:30:12;;;;;;;196.60;26.07;;;8.70;92.90;;;;;;5075315;28;20021;-78
2021/05/20 02:32:38;;;;;;;131.10;24.40;;;8.70;92.90;;;;;;5075250;28;20503;-78
2021/05/20 02:35:05;;;;;;;117.80;22.80;;;8.70;93.00;;;;;;5075520;28;20025;-78
2021/05/20 02:37:31;;;;;;;174.60;24.37;;;8.70;93.10;;;;;;5075399;28;20472;-78
2021/05/20 02:39:57;;;;;;;135.97;24.70;;;8.80;93.20;;;;;;5073739;28;20035;-78
2021/05/20 02:42:22;;;;;;;109.33;23.57;;;8.80;93.20;;;;;;5057436;28;20115;-78
2021/05/20 02:44:48;;;;;;;100.67;25.03;;;8.80;93.20;;;;;;5073771;28;20059;-78
2021/05/20 02:47:14;;;;;;;102.50;24.87;;;8.90;93.30;;;;;;5057403;28;20025;-78
2021/05/20 02:49:40;;;;;;;171.20;27.37;;;8.80;93.20;;;;;;5057243;28;20102;-78
2021/05/20 02:52:06;;;;;;;183.50;30.83;;;9.00;93.40;;;;;;5057212;28;20037;-78
2021/05/20 02:54:32;;;;;;;70.13;25.13;;;8.90;93.40;;;;;;5056930;28;20059;-78
2021/05/20 02:56:57;;;;;;;130.00;26.97;;;9.00;93.40;;;;;;5073799;28;20029;-79
2021/05/20 02:59:23;;;;;;;113.47;27.87;;;9.00;93.40;;;;;;5057070;28;20048;-78
2021/05/20 03:01:49;;;;;;;74.70;25.70;;;9.00;93.50;;;;;;5056796;28;20159;-73
2021/05/20 03:04:14;;;;;;;89.40;26.70;;;9.00;93.50;;;;;;5039813;28;20049;-73
2021/05/20 03:06:41;;;;;;;88.00;27.10;;;9.10;93.50;;;;;;5073454;28;20043;-73
2021/05/20 03:09:08;;;;;;;87.70;29.33;;;9.10;93.50;;;;;;5073098;28;20120;-73
2021/05/20 03:11:34;;;;;;;117.63;30.13;;;9.10;93.50;;;;;;5073640;28;20038;-74
2021/05/20 03:14:00;;;;;;;81.93;28.90;;;9.20;93.60;;;;;;5073375;28;20168;-74
2021/05/20 03:16:26;;;;;;;101.50;30.27;;;9.20;93.60;;;;;;5074749;28;20048;-73
2021/05/20 03:18:53;;;;;;;74.63;30.33;;;9.20;93.70;;;;;;5074437;28;20111;-74
2021/05/20 03:21:18;;;;;;;81.93;28.63;;;9.20;93.70;;;;;;5073121;28;20059;-74
2021/05/20 03:23:44;;;;;;;69.90;29.30;;;9.20;93.90;;;;;;5074550;28;20028;-75
2021/05/20 03:26:10;;;;;;;112.50;31.00;;;9.30;94.30;;;;;;5072872;28;20115;-74
2021/05/20 03:28:35;;;;;;;84.17;30.30;;;9.20;94.10;;;;;;5074309;28;20032;-74
2021/05/20 03:31:01;;;;;;;111.00;30.00;;;9.30;94.20;;;;;;5056256;28;20025;-74
2021/05/20 03:33:27;;;;;;;117.43;31.80;;;9.30;94.20;;;;;;5074069;28;20036;-74
2021/05/20 03:35:56;;;;;;;75.80;28.67;;;9.20;94.20;;;;;;5072663;28;20472;-74
2021/05/20 03:38:21;;;;;;;111.17;28.67;;;9.20;94.50;;;;;;5056498;28;20027;-73
2021/05/20 03:40:47;;;;;;;92.10;27.47;;;9.20;94.30;;;;;;5072699;28;20403;-73
2021/05/20 03:43:12;;;;;;;115.00;30.60;;;9.20;94.20;;;;;;5056121;28;20035;-75
2021/05/20 03:45:38;;;;;;;97.80;29.10;;;9.20;94.30;;;;;;5055986;28;20025;-74
2021/05/20 03:48:04;;;;;;;125.80;30.87;;;9.20;94.30;;;;;;5055868;28;20434;-72
2021/05/20 03:50:30;;;;;;;92.80;30.13;;;9.20;94.20;;;;;;5073038;28;20029;-74
2021/05/20 03:52:58;;;;;;;92.60;29.47;;;9.20;94.30;;;;;;5055742;28;20025;-73
2021/05/20 03:55:24;;;;;;;139.07;31.30;;;9.10;94.20;;;;;;5072753;28;20013;-73
2021/05/20 03:57:50;;;;;;;81.97;30.90;;;9.20;94.20;;;;;;5073152;28;20418;-73
2021/05/20 04:00:16;;;;;;;102.03;30.23;;;9.20;94.50;;;;;;5054695;28;20025;-73
2021/05/20 04:02:42;;;;;;;88.97;29.53;;;9.20;94.20;;;;;;5068406;28;20033;-74
2021/05/20 04:05:08;;;;;;;83.63;30.37;;;9.30;94.20;;;;;;5051877;28;20036;-73
2021/05/20 04:07:33;;;;;;;68.40;27.77;;;9.30;94.20;;;;;;5051258;28;20040;-72
2021/05/20 04:09:59;;;;;;;80.33;28.17;;;9.30;94.20;;;;;;5053451;28;20037;-73
2021/05/20 04:12:25;;;;;;;56.33;29.00;;;9.30;94.20;;;;;;5052245;28;20021;-73
2021/05/20 04:14:50;;;;;;;56.07;27.27;;;9.30;94.20;;;;;;5052012;28;20048;-73
2021/05/20 04:17:16;;;;;;;53.97;28.80;;;9.30;94.30;;;;;;5051994;28;20025;-73
2021/05/20 04:19:41;;;;;;;48.10;26.17;;;9.30;94.20;;;;;;5052199;28;20090;-72
2021/05/20 04:22:07;;;;;;;46.07;25.93;;;9.40;94.30;;;;;;5053342;28;20063;-78
2021/05/20 04:24:33;;;;;;;53.60;28.27;;;9.40;94.30;;;;;;5053254;28;20059;-78
2021/05/20 04:26:58;;;;;;;57.47;28.93;;;9.40;94.20;;;;;;5053513;28;20029;-78
2021/05/20 04:29:24;;;;;;;51.13;27.57;;;9.20;94.20;;;;;;5052074;28;20040;-78
2021/05/20 04:31:49;;;;;;;55.33;26.50;;;9.30;94.20;;;;;;5052174;28;20040;-78
2021/05/20 04:34:15;;;;;;;43.87;24.60;;;9.40;94.20;;;;;;5068703;28;20467;-78
2021/05/20 04:36:41;;;;;;;45.63;25.87;;;9.40;94.20;;;;;;5052219;28;20057;-79
2021/05/20 04:39:07;;;;;;;51.80;28.50;;;9.40;94.20;;;;;;5050562;28;20473;-78
2021/05/20 04:41:32;;;;;;;45.40;26.60;;;9.40;94.20;;;;;;5053333;28;20029;-78
2021/05/20 04:43:59;;;;;;;53.30;28.20;;;9.40;94.30;;;;;;5035415;28;20021;-78
2021/05/20 04:46:24;;;;;;;52.60;28.07;;;9.50;94.30;;;;;;5052143;28;20029;-78
2021/05/20 04:48:50;;;;;;;47.90;27.10;;;9.50;94.20;;;;;;5051803;28;20025;-77
2021/05/20 04:51:17;;;;;;;48.27;26.60;;;9.40;94.20;;;;;;5053028;28;20099;-77
2021/05/20 04:53:43;;;;;;;53.37;27.17;;;9.50;94.20;;;;;;5055997;28;20112;-78
2021/05/20 04:56:09;;;;;;;64.03;31.07;;;9.40;94.20;;;;;;5057038;28;20469;-78
2021/05/20 04:58:35;;;;;;;63.77;30.60;;;9.40;94.20;;;;;;5057490;28;20035;-73
2021/05/20 05:01:01;;;;;;;67.30;29.33;;;9.40;94.20;;;;;;5057267;28;20448;-74
2021/05/20 05:03:26;;;;;;;74.90;31.67;;;9.40;94.20;;;;;;5072365;28;20052;-73
2021/05/20 05:05:53;;;;;;;63.90;30.70;;;9.40;94.20;;;;;;5057297;28;20033;-72
2021/05/20 05:08:19;;;;;;;54.97;28.73;;;9.40;94.20;;;;;;5055603;28;20127;-73
2021/05/20 05:10:45;;;;;;;63.43;29.07;;;9.40;94.20;;;;;;5071982;28;20545;-73
2021/05/20 05:13:10;;;;;;;51.70;29.93;;;9.40;94.30;;;;;;5056711;28;20115;-74
2021/05/20 05:15:36;;;;;;;62.83;30.57;;;9.50;94.20;;;;;;5056695;28;20048;-72
2021/05/20 05:18:02;;;;;;;50.80;26.57;;;9.50;94.50;;;;;;5038954;28;20434;-73
2021/05/20 05:20:28;;;;;;;54.47;27.43;;;9.50;94.20;;;;;;5038870;28;20079;-74
2021/05/20 05:22:54;;;;;;;47.40;27.60;;;9.60;94.20;;;;;;5056892;28;20111;-73
2021/05/20 05:25:19;;;;;;;46.87;25.30;;;9.70;94.20;;;;;;5071913;28;20070;-73
2021/05/20 05:27:45;;;;;;;56.17;28.80;;;9.60;94.10;;;;;;5056283;28;20500;-72
2021/05/20 05:30:11;;;;;;;50.00;25.27;;;9.60;94.10;;;;;;5056627;28;20112;-75
2021/05/20 05:32:37;;;;;;;46.63;24.43;;;9.70;94.40;;;;;;5056367;28;20486;-74
2021/05/20 05:35:03;;;;;;;47.00;25.63;;;9.70;94.10;;;;;;5056656;28;20064;-74
2021/05/20 05:37:29;;;;;;;52.37;26.97;;;9.80;94.00;;;;;;5065922;28;20029;-74
2021/05/20 05:39:54;;;;;;;45.07;25.80;;;9.70;94.00;;;;;;5041823;28;20028;-74
2021/05/20 05:42:20;;;;;;;44.53;23.33;;;9.80;94.10;;;;;;5063108;28;20025;-74
2021/05/20 05:44:45;;;;;;;43.93;24.87;;;9.90;94.10;;;;;;5042720;28;20036;-75
2021/05/20 05:47:11;;;;;;;41.60;23.03;;;9.90;94.10;;;;;;5057356;28;20124;-74
2021/05/20 05:49:48;;;;;;;42.50;23.67;;;9.90;94.10;;;;;;5054820;28;20025;-74
2021/05/20 05:52:23;;;;;;;48.13;26.40;;;9.90;94.00;;;;;;5040178;28;20021;-74
2021/05/20 05:54:52;;;;;;;42.30;24.23;;;10.00;93.90;;;;;;5054489;28;20021;-74
2021/05/20 05:57:17;;;;;;;40.43;23.90;;;10.00;93.90;;;;;;5072020;28;20021;-74
2021/05/20 05:59:43;;;;;;;38.73;23.23;;;10.10;93.90;;;;;;5057483;28;20035;-74
2021/05/20 06:02:12;;;;;;;40.77;23.00;;;10.10;93.80;;;;;;5074629;28;20399;-73
2021/05/20 06:04:38;;;;;;;40.97;23.87;;;10.10;93.70;;;;;;5075538;28;20090;-75
2021/05/20 06:07:04;;;;;;;39.03;23.40;;;10.20;93.70;;;;;;5074416;28;20024;-73
2021/05/20 06:09:29;;;;;;;42.30;23.07;;;10.30;93.70;;;;;;5075151;28;20484;-74
2021/05/20 06:11:56;;;;;;;41.37;23.50;;;10.30;93.70;;;;;;5075448;28;20035;-73
2021/05/20 06:14:22;;;;;;;49.30;26.27;;;10.40;93.60;;;;;;5073894;28;20025;-74
2021/05/20 06:16:48;;;;;;;40.83;25.00;;;10.50;93.50;;;;;;5075041;28;20051;-72
2021/05/20 06:19:13;;;;;;;48.90;26.60;;;10.50;93.50;;;;;;5073833;28;20029;-73
2021/05/20 06:21:39;;;;;;;49.70;25.43;;;10.60;93.30;;;;;;5073749;28;20032;-74
2021/05/20 06:24:06;;;;;;;50.83;26.40;;;10.60;93.30;;;;;;5075259;28;20025;-74
2021/05/20 06:26:31;;;;;;;49.33;25.33;;;10.60;93.20;;;;;;5073520;28;20131;-73
2021/05/20 06:28:57;;;;;;;51.00;25.53;;;10.60;92.90;;;;;;5073869;28;20119;-73
2021/05/20 06:31:23;;;;;;;47.70;23.73;;;10.60;92.80;;;;;;5075279;28;20488;-73
2021/05/20 06:33:49;;;;;;;46.80;24.50;;;10.60;92.90;;;;;;5058169;28;20107;-72
2021/05/20 06:36:16;;;;;;;41.33;21.73;;;10.60;92.90;;;;;;5074002;28;20058;-75
2021/05/20 06:38:42;;;;;;;47.10;24.37;;;10.70;92.90;;;;;;5064602;28;20048;-73
2021/05/20 06:41:09;;;;;;;45.67;24.33;;;10.80;92.90;;;;;;5061725;28;20118;-73
2021/05/20 06:43:36;;;;;;;47.33;26.90;;;10.80;92.70;;;;;;5063797;28;20025;-73
2021/05/20 06:46:03;;;;;;;43.67;25.33;;;10.90;92.60;;;;;;5063031;28;20033;-73
2021/05/20 06:48:28;;;;;;;46.57;26.03;;;10.90;92.50;;;;;;5073108;28;20028;-73
2021/05/20 06:50:54;;;;;;;43.40;26.10;;;11.00;92.50;;;;;;5073154;28;20074;-78
2021/05/20 06:53:24;;;;;;;52.27;26.77;;;11.10;92.40;;;;;;5058305;28;20032;-79
2021/05/20 06:55:52;;;;;;;47.07;27.27;;;11.10;92.40;;;;;;5068764;28;20377;-79
2021/05/20 07:01:02;;;;;;;54.88;31.85;;;11.30;92.20;;;;;;5054444;28;20059;-80
2021/05/20 07:03:28;;;;;;;53.07;29.67;;;11.30;92.20;;;;;;5045133;28;20045;-79
2021/05/20 07:05:56;;;;;;;52.40;29.20;;;11.50;92.20;;;;;;5073007;28;20064;-78
2021/05/20 07:08:22;;;;;;;54.03;33.40;;;11.60;92.10;;;;;;5052533;28;20045;-80
2021/05/20 07:10:48;;;;;;;64.18;36.50;;;11.60;91.90;;;;;;5052522;28;20031;-78
2021/05/20 07:13:13;;;;;;;63.95;36.60;;;11.70;91.80;;;;;;5052808;28;20116;-78
2021/05/20 07:15:40;;;;;;;63.70;35.08;;;11.70;91.70;;;;;;5019570;28;20021;-80
2021/05/20 07:18:06;;;;;;;65.10;36.43;;;11.70;91.60;;;;;;5056897;28;20025;-79
2021/05/20 07:20:31;;;;;;;61.67;33.08;;;11.70;91.60;;;;;;5069691;28;20116;-79
2021/05/20 07:22:57;;;;;;;65.87;35.67;;;11.70;91.50;;;;;;5056079;28;20027;-79
2021/05/20 07:25:22;;;;;;;69.78;36.95;;;11.70;91.50;;;;;;5056100;28;20016;-79
2021/05/20 07:27:48;;;;;;;67.07;36.88;;;11.80;91.40;;;;;;5056025;28;20070;-81
2021/05/20 07:30:14;;;;;;;65.95;37.70;;;11.80;91.40;;;;;;5039604;28;20025;-79
2021/05/20 07:32:40;;;;;;;62.03;35.60;;;11.80;91.40;;;;;;5073469;28;20040;-81
2021/05/20 07:35:07;;;;;;;61.38;36.35;;;11.90;91.30;;;;;;5055645;28;20538;-81
2021/05/20 07:37:32;;;;;;;65.28;38.95;;;12.00;91.20;;;;;;5073835;28;20024;-81
2021/05/20 07:39:58;;;;;;;71.80;41.25;;;12.10;91.10;;;;;;5067180;28;20013;-79
2021/05/20 07:42:24;;;;;;;67.70;40.13;;;12.10;91.00;;;;;;5053863;28;20055;-79
2021/05/20 07:44:54;;;;;;;71.38;42.58;;;12.10;90.90;;;;;;5069083;28;20506;-80
2021/05/20 07:47:19;;;;;;;67.65;41.65;;;12.20;91.00;;;;;;5072399;28;20033;-79
2021/05/20 07:49:45;;;;;;;65.47;39.20;;;12.30;90.90;;;;;;5052176;28;20039;-79
2021/05/20 07:52:11;;;;;;;58.58;34.08;;;12.40;90.70;;;;;;5052471;28;20018;-85
2021/05/20 07:54:36;;;;;;;61.22;37.38;;;12.50;90.60;;;;;;5035950;28;20108;-81
2021/05/20 07:57:02;;;;;;;59.60;35.83;;;12.60;90.50;;;;;;5054708;28;20109;-80
2021/05/20 07:59:28;;;;;;;61.45;36.33;;;12.60;90.40;;;;;;5055888;28;20388;-79
2021/05/20 08:02:05;;;;;;;64.18;37.25;;;12.60;90.20;;;;;;5024987;28;20025;-79
2021/05/20 08:04:32;;;;;;;54.13;33.40;;;12.70;90.00;;;;;;5052039;28;20053;-81
2021/05/20 08:09:49;;;;;;;56.10;34.40;;;12.70;89.50;;;;;;5052637;28;20531;-81
2021/05/20 08:12:15;;;;;;;53.83;31.67;;;12.80;89.40;;;;;;5052274;28;20048;-81
2021/05/20 08:14:40;;;;;;;54.08;31.38;;;12.90;89.50;;;;;;5052074;28;20389;-74
2021/05/20 08:17:07;;;;;;;54.85;30.88;;;12.90;88.50;;;;;;5052457;28;20036;-74
2021/05/20 08:19:33;;;;;;;55.72;31.85;;;12.90;88.50;;;;;;5052144;28;20028;-74
2021/05/20 08:21:59;;;;;;;49.58;29.60;;;12.90;88.50;;;;;;5035841;28;20033;-75
2021/05/20 08:24:24;;;;;;;47.47;28.83;;;12.90;88.60;;;;;;5053440;28;20033;-74
2021/05/20 08:26:50;;;;;;;45.15;27.55;;;12.90;88.30;;;;;;5052584;28;20397;-74
2021/05/20 08:29:16;;;;;;;48.13;29.63;;;13.00;88.50;;;;;;5052331;28;20029;-75
2021/05/20 08:31:41;;;;;;;45.30;27.75;;;13.00;88.50;;;;;;5065114;28;20074;-74
2021/05/20 08:34:07;;;;;;;40.22;26.17;;;13.10;88.20;;;;;;5064098;28;20094;-75
2021/05/20 08:36:33;;;;;;;40.42;25.75;;;13.20;88.10;;;;;;5065380;28;20094;-74
2021/05/20 08:38:59;;;;;;;35.58;23.08;;;13.20;87.00;;;;;;5055731;28;20052;-74
2021/05/20 08:41:25;;;;;;;34.47;22.75;;;13.30;86.80;;;;;;5053935;28;20071;-74
2021/05/20 08:43:51;;;;;;;34.70;22.65;;;13.40;86.20;;;;;;5072116;28;20468;-79
2021/05/20 08:46:24;;;;;;;38.17;23.75;;;13.40;85.50;;;;;;5073219;28;20057;-81
2021/05/20 08:48:50;;;;;;;36.72;23.52;;;13.50;85.00;;;;;;5055101;28;20017;-83
2021/05/20 08:51:17;;;;;;;31.98;20.83;;;13.60;85.40;;;;;;5071674;28;20818;-79
2021/05/20 08:53:43;;;;;;;35.35;23.30;;;13.50;84.70;;;;;;5071793;28;20032;-81
2021/05/20 08:56:12;;;;;;;34.55;21.63;;;13.60;83.80;;;;;;5072859;28;20025;-81
2021/05/20 08:58:38;;;;;;;30.85;21.48;;;13.60;84.00;;;;;;5054951;28;20025;-81
2021/05/20 09:01:04;;;;;;;29.90;20.17;;;13.70;83.90;;;;;;5054978;28;20029;-81
2021/05/20 09:03:30;;;;;;;28.65;19.23;;;13.80;84.00;;;;;;5071567;28;20055;-82
2021/05/20 09:06:04;;;;;;;28.23;19.88;;;13.90;83.00;;;;;;5054710;28;20044;-80
2021/05/20 09:08:34;;;;;;;26.48;18.38;;;13.90;82.80;;;;;;5072122;28;20445;-81
2021/05/20 09:11:03;;;;;;;28.50;20.20;;;13.90;82.60;;;;;;5038656;28;20119;-79
2021/05/20 09:13:37;;;;;;;28.27;19.00;;;14.00;82.40;;;;;;5069247;28;20084;-82
2021/05/20 09:16:13;;;;;;;29.35;19.55;;;14.00;82.40;;;;;;5068312;28;20032;-82
2021/05/20 09:18:40;;;;;;;37.40;22.05;;;14.10;82.10;;;;;;5051344;28;20503;-80
2021/05/20 09:21:07;;;;;;;30.23;20.13;;;14.10;81.50;;;;;;5051051;28;20120;-80
2021/05/20 09:23:33;;;;;;;33.50;21.60;;;14.10;81.70;;;;;;5051154;28;20044;-79
2021/05/20 09:26:07;;;;;;;26.75;18.95;;;14.10;81.50;;;;;;5051334;28;20029;-81
2021/05/20 09:28:40;;;;;;;;;;;14.20;81.50;;;;;;5053015;28;20057;-82
2021/05/20 09:31:06;;;;;;;26.88;17.88;;;14.30;80.40;;;;;;5051682;28;19905;-82
2021/05/20 09:33:31;;;;;;;25.05;17.30;;;14.30;80.40;;;;;;5051281;28;20028;-81
2021/05/20 09:35:57;;;;;;;26.02;18.27;;;14.40;80.00;;;;;;5018268;28;20067;-81
2021/05/20 09:38:25;;;;;;;25.98;19.30;;;14.30;80.00;;;;;;5055458;28;20033;-80
2021/05/20 09:41:03;;;;;;;26.10;18.83;;;14.30;80.00;;;;;;5058722;28;20043;-78
2021/05/20 09:43:35;;;;;;;28.58;18.38;;;14.30;79.80;;;;;;5064955;28;20192;-81
2021/05/20 09:46:10;;;;;;;21.38;14.88;;;14.30;80.30;;;;;;5065407;28;20075;-81
2021/05/20 09:48:37;;;;;;;18.35;13.77;;;14.40;80.60;;;;;;5071765;28;20542;-78
2021/05/20 09:51:05;;;;;;;21.05;12.85;;;14.50;79.90;;;;;;5075091;28;20207;-80
2021/05/20 09:53:31;;;;;;;17.23;12.07;;;14.70;79.60;;;;;;5074534;28;20433;-81
2021/05/20 09:56:01;;;;;;;19.52;13.40;;;14.70;79.20;;;;;;5041390;28;20044;-81
2021/05/20 09:58:32;;;;;;;17.88;13.93;;;14.80;78.00;;;;;;5065424;28;20021;-81
2021/05/20 10:01:03;;;;;;;18.00;13.30;;;15.00;77.70;;;;;;5055993;28;20436;-81
2021/05/20 10:03:34;;;;;;;20.77;13.30;;;15.20;77.30;;;;;;5054568;28;20150;-81
2021/05/20 10:06:00;;;;;;;18.92;13.23;;;15.30;76.40;;;;;;5069214;28;20032;-80
2021/05/20 10:08:29;;;;;;;17.50;13.32;;;15.40;75.90;;;;;;5075833;28;20028;-81
2021/05/20 10:10:57;;;;;;;18.60;13.85;;;15.40;75.50;;;;;;5059518;28;20472;-82
2021/05/20 10:13:28;;;;;;;15.45;11.98;;;15.50;75.90;;;;;;5064866;28;20020;-82
2021/05/20 10:15:54;;;;;;;19.13;14.48;;;15.70;76.30;;;;;;5064365;28;20531;-82
2021/05/20 10:18:22;;;;;;;18.33;12.60;;;15.80;75.00;;;;;;5062150;28;20056;-78
2021/05/20 10:20:50;;;;;;;16.70;12.45;;;15.90;74.40;;;;;;5064260;28;20021;-83
2021/05/20 10:23:21;;;;;;;18.33;12.57;;;15.90;73.70;;;;;;5062579;28;20464;-80
2021/05/20 10:25:50;;;;;;;21.67;14.02;;;16.00;73.40;;;;;;5063082;28;20119;-81
2021/05/20 10:28:18;;;;;;;16.95;12.30;;;16.20;73.20;;;;;;5073794;28;20020;-81
2021/05/20 10:30:46;;;;;;;16.55;12.38;;;16.40;73.10;;;;;;5067502;28;20075;-81
2021/05/20 10:33:14;;;;;;;17.75;13.60;;;16.60;72.80;;;;;;5062739;28;20093;-82
2021/05/20 10:35:51;;;;;;;17.73;14.02;;;16.90;72.20;;;;;;5079391;28;20092;-81
2021/05/20 10:38:38;;;;;;;19.13;13.50;;;17.30;71.40;;;;;;5071295;28;20487;-80
2021/05/20 10:41:19;;;;;;;14.13;10.68;;;17.70;69.80;;;;;;5073963;28;20419;-79
2021/05/20 10:43:46;;;;;;;17.65;13.30;;;18.10;69.40;;;;;;5074659;28;20013;-80
2021/05/20 10:46:14;;;;;;;16.48;12.98;;;18.40;68.90;;;;;;5061208;28;20024;-80
2021/05/20 10:48:48;;;;;;;14.95;11.93;;;18.70;67.20;;;;;;5052257;28;20431;-81
2021/05/20 10:51:24;;;;;;;15.63;12.15;;;18.80;66.40;;;;;;5054902;28;20051;-80
2021/05/20 10:54:11;;;;;;;16.35;11.88;;;18.90;66.20;;;;;;5053970;28;20029;-80
2021/05/20 10:56:39;;;;;;;16.88;12.38;;;19.40;65.40;;;;;;5058097;28;20480;-80
2021/05/20 10:59:34;;;;;;;14.60;12.15;;;19.90;65.10;;;;;;5054352;28;20044;-82
2021/05/20 11:01:59;;;;;;;14.85;11.57;;;20.30;62.70;;;;;;5053528;28;20468;-82
2021/05/20 11:04:34;;;;;;;18.05;12.60;;;20.70;62.30;;;;;;5053761;28;20056;-80
2021/05/20 11:07:00;;;;;;;14.25;11.10;;;21.20;61.50;;;;;;5054693;28;20379;-81
2021/05/20 11:09:48;;;;;;;17.60;14.80;;;21.80;61.10;;;;;;5036534;28;20124;-79
2021/05/20 11:12:15;;;;;;;17.13;12.05;;;22.40;58.50;;;;;;5054091;28;20100;-81
2021/05/20 11:14:41;;;;;;;15.93;12.52;;;22.90;57.70;;;;;;5053082;28;20021;-79
2021/05/20 11:17:30;;;;;;;18.60;14.80;;;23.20;56.30;;;;;;5054159;28;20361;-79
2021/05/20 11:20:23;;;;;;;20.67;17.05;;;23.50;54.90;;;;;;5054761;28;20504;-78
2021/05/20 11:23:18;;;;;;;20.48;18.05;;;23.90;52.00;;;;;;5053027;28;20036;-81
2021/05/20 11:25:46;;;;;;;19.88;16.80;;;24.30;50.70;;;;;;5054605;28;20032;-81
2021/05/20 11:28:12;;;;;;;25.05;20.70;;;24.50;50.30;;;;;;5054232;28;20108;-83
2021/05/20 11:30:38;;;;;;;20.15;15.90;;;24.80;49.50;;;;;;5036399;28;20033;-80
2021/05/20 11:33:04;;;;;;;22.75;18.85;;;24.80;49.20;;;;;;5052840;28;20079;-80
2021/05/20 11:37:58;;;;;;;19.73;17.33;;;25.10;48.90;;;;;;5054449;28;20033;-82
2021/05/20 11:40:30;;;;;;;23.52;18.25;;;25.50;48.50;;;;;;5053848;28;20163;-81
2021/05/20 11:42:55;;;;;;;21.23;16.48;;;25.90;47.00;;;;;;5054069;28;20036;-80
2021/05/20 11:45:29;;;;;;;18.65;14.63;;;26.20;46.00;;;;;;5036599;28;20025;-85
2021/05/20 11:47:58;;;;;;;19.75;15.95;;;26.50;45.10;;;;;;5061658;28;20476;-83
2021/05/20 11:50:24;;;;;;;17.73;14.80;;;26.80;44.50;;;;;;5060599;28;20097;-80
2021/05/20 11:52:51;;;;;;;16.17;13.82;;;27.00;44.10;;;;;;5064182;28;20033;-80
2021/05/20 11:55:19;;;;;;;16.75;13.43;;;27.20;42.60;;;;;;5061943;28;20013;-80
2021/05/20 11:57:45;;;;;;;18.75;14.93;;;27.20;42.10;;;;;;5067024;28;20027;-80
2021/05/20 12:00:13;;;;;;;18.20;12.65;;;27.20;42.10;;;;;;5056397;28;20024;-81
2021/05/20 12:02:39;;;;;;;17.35;14.32;;;27.20;42.30;;;;;;5072496;28;20107;-74
2021/05/20 12:05:11;;;;;;;17.05;13.68;;;27.00;42.00;;;;;;5072387;28;20107;-74
2021/05/20 12:07:39;;;;;;;17.30;13.43;;;26.80;42.10;;;;;;5072243;28;20036;-75
2021/05/20 12:10:14;;;;;;;17.48;15.00;;;26.40;41.90;;;;;;5071582;28;20078;-75
2021/05/20 12:12:42;;;;;;;17.48;14.30;;;25.90;42.50;;;;;;5072983;28;20020;-74
2021/05/20 12:15:19;;;;;;;14.68;12.02;;;25.50;43.30;;;;;;5073377;28;20028;-75
2021/05/20 12:17:46;;;;;;;20.52;14.43;;;25.20;43.70;;;;;;5073401;28;20024;-75
2021/05/20 12:20:13;;;;;;;16.52;13.43;;;25.00;43.30;;;;;;5073005;28;20028;-75
2021/05/20 12:22:39;;;;;;;16.10;12.95;;;24.70;43.80;;;;;;5062681;28;20120;-75
2021/05/20 12:25:16;;;;;;;17.55;15.10;;;24.50;44.00;;;;;;5072654;28;20112;-74
2021/05/20 12:27:51;;;;;;;14.32;12.77;;;24.10;44.00;;;;;;5055982;28;20029;-75
2021/05/20 12:30:28;;;;;;;16.95;12.93;;;23.70;45.10;;;;;;5060459;28;20431;-72
2021/05/20 12:33:03;;;;;;;15.18;12.05;;;23.50;45.60;;;;;;5053550;28;20035;-75
2021/05/20 12:35:38;;;;;;;15.90;12.80;;;23.20;45.70;;;;;;5052991;28;20052;-74
2021/05/20 12:38:08;;;;;;;15.30;12.43;;;22.90;46.00;;;;;;5051780;28;20505;-74
2021/05/20 12:40:41;;;;;;;15.23;11.02;;;22.50;46.40;;;;;;5051854;28;20074;-75
2021/05/20 12:43:13;;;;;;;14.30;12.07;;;22.30;47.20;;;;;;5053079;28;20426;-76